Dartmouth, Canada
Current Conditions -  °F | °C
As of 10:00 AM on Wednesday 28 Jan 2015 (Local Time) from CYHZ Reporting Station
Light Snow Light Snow  
Wind Chill: 21°   Ceiling: 300
Heat Index: 27°   Visibility: 2.5mi
Dew Point: 27°   Wind: 5mph
Humidity: 100%   Direction: 10°N
Pressure: 29.55"   Gusts: NA
Location:  44.67°N, 63.58°W
Report Text: CYHZ 281400Z 01004KT 320V030 2 1/2SM -SN BR BKN003 M03/M03 A2955 RMK ST7 SLP015
Loading
Personal Weather Stations






























Interactive Weather Map New forecast layout! Learn more

10-Day Weather Forecast

Advertisements
Track Severe Weather on mobile